Time,TemperatureF,DewpointF,PressureIn,WindDirection,WindDirectionDegrees,WindSpeedMPH,WindSpeedGustMPH,Humidity,HourlyPrecipIn,Conditions,Clouds,dailyrainin,SoftwareType,DateUTC
2013-09-26 00:04:00,43.4,41.6,0.00,SE,141,4.2,-999.0,93,0.00,,,-99.99,,2013-09-26 08:04:00,
2013-09-26 00:09:00,43.4,41.8,0.00,SSE,149,3.9,-999.0,94,0.00,,,-99.99,,2013-09-26 08:09:00,
2013-09-26 00:14:00,43.3,41.9,0.00,SE,139,5.6,-999.0,94,0.00,,,-99.99,,2013-09-26 08:14:00,
2013-09-26 00:19:00,43.5,41.9,0.00,SE,133,6.4,-999.0,94,0.00,,,-99.99,,2013-09-26 08:19:00,
2013-09-26 00:24:00,43.7,42.0,0.00,ESE,121,4.8,-999.0,93,0.00,,,-99.99,,2013-09-26 08:24:00,
2013-09-26 00:29:00,43.6,41.8,0.00,SE,131,4.7,-999.0,93,0.00,,,-99.99,,2013-09-26 08:29:00,
2013-09-26 00:34:00,43.7,42.1,0.00,SE,135,4.9,-999.0,93,0.00,,,-99.99,,2013-09-26 08:34:00,
2013-09-26 00:39:00,43.7,42.0,0.00,ESE,113,4.6,-999.0,93,0.00,,,-99.99,,2013-09-26 08:39:00,
2013-09-26 00:44:00,44.0,42.1,0.00,ESE,121,4.8,-999.0,92,0.00,,,-99.99,,2013-09-26 08:44:00,
2013-09-26 00:49:00,44.2,42.3,0.00,SE,124,8.6,-999.0,92,0.00,,,-99.99,,2013-09-26 08:49:00,
2013-09-26 00:54:00,44.0,42.2,0.00,East,101,7.1,-999.0,93,0.00,,,-99.99,,2013-09-26 08:54:00,
2013-09-26 00:59:00,44.1,42.1,0.00,East,80,7.7,-999.0,92,0.00,,,-99.99,,2013-09-26 08:59:00,
2013-09-26 01:04:00,44.2,42.0,0.00,East,99,6.1,-999.0,92,0.00,,,-99.99,,2013-09-26 09:04:00,
2013-09-26 01:09:00,44.0,42.1,0.00,ESE,112,5.5,-999.0,92,0.00,,,-99.99,,2013-09-26 09:09:00,
2013-09-26 01:14:00,44.0,42.3,0.00,East,94,5.4,-999.0,93,0.00,,,-99.99,,2013-09-26 09:14:00,
2013-09-26 01:19:00,44.0,42.0,0.00,ESE,121,8.5,-999.0,92,0.00,,,-99.99,,2013-09-26 09:19:00,
2013-09-26 01:24:00,44.0,42.1,0.00,ESE,115,5.4,-999.0,92,0.00,,,-99.99,,2013-09-26 09:24:00,
2013-09-26 01:29:00,43.9,42.0,0.00,East,98,5.6,-999.0,92,0.00,,,-99.99,,2013-09-26 09:29:00,
2013-09-26 01:34:00,43.8,42.1,0.00,ESE,121,5.4,-999.0,93,0.00,,,-99.99,,2013-09-26 09:34:00,
2013-09-26 01:39:00,43.8,42.0,0.00,ESE,111,5.8,-999.0,93,0.00,,,-99.99,,2013-09-26 09:39:00,
2013-09-26 01:44:00,43.6,41.9,0.00,East,97,4.8,-999.0,93,0.00,,,-99.99,,2013-09-26 09:44:00,
2013-09-26 01:49:00,43.7,41.5,0.00,ESE,105,4.1,-999.0,91,0.00,,,-99.99,,2013-09-26 09:49:00,
2013-09-26 01:54:00,44.1,41.5,0.00,East,99,3.5,-999.0,90,0.00,,,-99.99,,2013-09-26 09:54:00,
2013-09-26 01:59:00,44.2,41.4,0.00,ESE,112,7.4,-999.0,89,0.00,,,-99.99,,2013-09-26 09:59:00,
2013-09-26 02:04:00,44.2,41.5,0.00,East,101,8.6,-999.0,90,0.00,,,-99.99,,2013-09-26 10:04:00,
2013-09-26 02:09:00,44.0,41.5,0.00,ESE,118,5.9,-999.0,90,0.00,,,-99.99,,2013-09-26 10:09:00,
2013-09-26 02:14:00,44.2,41.7,0.00,ESE,112,4.9,-999.0,90,0.00,,,-99.99,,2013-09-26 10:14:00,
2013-09-26 02:19:00,44.0,41.7,0.00,ESE,103,4.9,-999.0,91,0.00,,,-99.99,,2013-09-26 10:19:00,
2013-09-26 02:24:00,44.3,41.6,0.00,ENE,74,6.0,-999.0,90,0.00,,,-99.99,,2013-09-26 10:24:00,
2013-09-26 02:29:00,44.3,41.6,0.00,ENE,74,8.3,-999.0,90,0.00,,,-99.99,,2013-09-26 10:29:00,
2013-09-26 02:34:00,44.6,41.6,0.00,ESE,108,6.4,-999.0,89,0.00,,,-99.99,,2013-09-26 10:34:00,
2013-09-26 02:39:00,44.6,41.2,0.00,ESE,102,8.9,-999.0,87,0.00,,,-99.99,,2013-09-26 10:39:00,
2013-09-26 02:44:00,44.8,41.1,0.00,ENE,76,6.5,-999.0,86,0.00,,,-99.99,,2013-09-26 10:44:00,
2013-09-26 02:49:00,44.3,41.0,0.00,ENE,65,9.2,-999.0,87,0.00,,,-99.99,,2013-09-26 10:49:00,
2013-09-26 02:54:00,44.6,40.8,0.00,East,82,7.5,-999.0,86,0.00,,,-99.99,,2013-09-26 10:54:00,
2013-09-26 02:59:00,44.7,41.0,0.00,ENE,65,9.2,-999.0,86,0.00,,,-99.99,,2013-09-26 10:59:00,
2013-09-26 03:04:00,44.8,40.8,0.00,East,84,7.3,-999.0,85,0.00,,,-99.99,,2013-09-26 11:04:00,
2013-09-26 03:09:00,44.6,41.0,0.00,ENE,62,8.8,-999.0,87,0.00,,,-99.99,,2013-09-26 11:09:00,
2013-09-26 03:14:00,44.6,41.3,0.00,ENE,69,14.9,-999.0,87,0.00,,,-99.99,,2013-09-26 11:14:00,
2013-09-26 03:19:00,44.3,41.5,0.00,East,80,15.0,-999.0,90,0.00,,,-99.99,,2013-09-26 11:19:00,
2013-09-26 03:24:00,44.2,41.2,0.00,East,84,13.6,-999.0,88,0.00,,,-99.99,,2013-09-26 11:24:00,
2013-09-26 03:29:00,44.3,41.2,0.00,NE,56,16.2,-999.0,88,0.00,,,-99.99,,2013-09-26 11:29:00,
2013-09-26 03:34:00,44.5,41.2,0.00,ENE,63,9.4,-999.0,88,0.00,,,-99.99,,2013-09-26 11:34:00,
2013-09-26 03:39:00,44.1,41.1,0.00,ENE,73,7.2,-999.0,89,0.00,,,-99.99,,2013-09-26 11:39:00,
2013-09-26 03:44:00,44.3,41.0,0.00,NE,53,1.8,-999.0,88,0.00,,,-99.99,,2013-09-26 11:44:00,
2013-09-26 03:49:00,44.5,40.8,0.00,East,94,4.5,-999.0,86,0.00,,,-99.99,,2013-09-26 11:49:00,
2013-09-26 03:54:00,44.3,40.8,0.00,NNE,32,2.6,-999.0,87,0.00,,,-99.99,,2013-09-26 11:54:00,
2013-09-26 03:59:00,44.3,40.9,0.00,East,91,1.2,-999.0,87,0.00,,,-99.99,,2013-09-26 11:59:00,
2013-09-26 04:04:00,44.6,40.9,0.00,NE,49,4.0,-999.0,86,0.00,,,-99.99,,2013-09-26 12:04:00,
2013-09-26 04:09:00,44.5,40.9,0.00,East,94,6.4,-999.0,87,0.00,,,-99.99,,2013-09-26 12:09:00,
2013-09-26 04:14:00,44.4,41.1,0.00,ENE,68,9.4,-999.0,88,0.00,,,-99.99,,2013-09-26 12:14:00,
2013-09-26 04:19:00,44.5,41.4,0.00,ENE,68,8.4,-999.0,89,0.00,,,-99.99,,2013-09-26 12:19:00,
2013-09-26 04:24:00,44.2,41.3,0.00,ENE,60,9.6,-999.0,89,0.00,,,-99.99,,2013-09-26 12:24:00,
2013-09-26 04:29:00,44.4,41.0,0.00,SE,132,4.4,-999.0,87,0.00,,,-99.99,,2013-09-26 12:29:00,
2013-09-26 04:34:00,44.3,41.2,0.00,ENE,70,7.6,-999.0,88,0.00,,,-99.99,,2013-09-26 12:34:00,
2013-09-26 04:39:00,44.3,41.6,0.00,East,88,16.1,-999.0,90,0.00,,,-99.99,,2013-09-26 12:39:00,
2013-09-26 04:44:00,44.1,41.5,0.00,NE,36,9.3,-999.0,90,0.00,,,-99.99,,2013-09-26 12:44:00,
2013-09-26 04:49:00,44.0,41.4,0.00,East,97,7.2,-999.0,90,0.00,,,-99.99,,2013-09-26 12:49:00,
2013-09-26 04:54:00,44.3,41.5,0.00,ENE,61,16.5,-999.0,89,0.00,,,-99.99,,2013-09-26 12:54:00,
2013-09-26 04:59:00,44.4,41.4,0.00,ESE,112,11.2,-999.0,89,0.00,,,-99.99,,2013-09-26 12:59:00,
2013-09-26 05:04:00,44.6,41.2,0.00,ENE,76,11.4,-999.0,88,0.00,,,-99.99,,2013-09-26 13:04:00,
2013-09-26 05:09:00,44.9,41.4,0.00,ESE,104,5.1,-999.0,87,0.00,,,-99.99,,2013-09-26 13:09:00,
2013-09-26 05:14:00,44.9,41.4,0.00,East,82,15.5,-999.0,87,0.00,,,-99.99,,2013-09-26 13:14:00,
2013-09-26 05:19:00,44.3,41.7,0.00,ESE,120,18.9,-999.0,90,0.00,,,-99.99,,2013-09-26 13:19:00,
2013-09-26 05:24:00,44.8,41.5,0.00,ESE,112,9.4,-999.0,88,0.00,,,-99.99,,2013-09-26 13:24:00,
2013-09-26 05:29:00,44.7,41.5,0.00,East,82,17.4,-999.0,88,0.00,,,-99.99,,2013-09-26 13:29:00,
2013-09-26 05:34:00,44.5,41.5,0.00,East,89,17.0,-999.0,89,0.00,,,-99.99,,2013-09-26 13:34:00,
2013-09-26 05:39:00,44.5,41.5,0.00,East,98,12.7,-999.0,89,0.00,,,-99.99,,2013-09-26 13:39:00,
2013-09-26 05:44:00,44.1,41.4,0.00,East,93,12.3,-999.0,89,0.00,,,-99.99,,2013-09-26 13:44:00,
2013-09-26 05:49:00,44.6,41.3,0.00,East,82,21.2,-999.0,88,0.00,,,-99.99,,2013-09-26 13:49:00,
2013-09-26 05:54:00,44.8,41.0,0.00,East,79,10.6,-999.0,86,0.00,,,-99.99,,2013-09-26 13:54:00,
2013-09-26 05:59:00,44.6,40.9,0.00,ESE,110,9.9,-999.0,86,0.00,,,-99.99,,2013-09-26 13:59:00,
2013-09-26 06:04:00,44.9,41.0,0.00,ESE,107,10.7,-999.0,86,0.00,,,-99.99,,2013-09-26 14:04:00,
2013-09-26 06:09:00,44.8,41.0,0.00,ESE,104,4.5,-999.0,86,0.00,,,-99.99,,2013-09-26 14:09:00,
2013-09-26 06:14:00,44.8,41.0,0.00,East,95,6.8,-999.0,86,0.00,,,-99.99,,2013-09-26 14:14:00,
2013-09-26 06:19:00,44.6,40.9,0.00,ENE,70,4.7,-999.0,86,0.00,,,-99.99,,2013-09-26 14:19:00,
2013-09-26 06:25:00,44.7,40.8,0.00,ENE,77,5.2,-999.0,86,0.00,,,-99.99,,2013-09-26 14:25:00,
2013-09-26 06:30:00,44.6,40.9,0.00,SE,145,6.6,-999.0,86,0.00,,,-99.99,,2013-09-26 14:30:00,
2013-09-26 06:35:00,44.3,41.1,0.00,ESE,123,10.6,-999.0,88,0.00,,,-99.99,,2013-09-26 14:35:00,
2013-09-26 06:40:00,44.2,41.2,0.00,ESE,121,9.4,-999.0,89,0.00,,,-99.99,,2013-09-26 14:40:00,
2013-09-26 06:45:00,44.3,41.1,0.00,SE,125,7.3,-999.0,88,0.00,,,-99.99,,2013-09-26 14:45:00,
2013-09-26 06:50:00,44.8,41.2,0.00,ESE,114,9.6,-999.0,87,0.00,,,-99.99,,2013-09-26 14:50:00,
2013-09-26 06:55:00,44.6,41.2,0.00,East,83,13.0,-999.0,87,0.00,,,-99.99,,2013-09-26 14:55:00,
2013-09-26 07:00:00,44.4,41.2,0.00,ENE,65,3.4,-999.0,88,0.00,,,-99.99,,2013-09-26 15:00:00,
2013-09-26 07:05:00,44.6,41.0,0.00,ESE,102,14.3,-999.0,86,0.00,,,-99.99,,2013-09-26 15:05:00,
2013-09-26 07:10:00,44.5,41.0,0.00,East,94,15.6,-999.0,87,0.00,,,-99.99,,2013-09-26 15:10:00,
2013-09-26 07:15:00,44.5,41.1,0.00,East,93,14.1,-999.0,87,0.00,,,-99.99,,2013-09-26 15:15:00,
2013-09-26 07:20:00,44.5,41.1,0.00,ENE,74,6.8,-999.0,88,0.00,,,-99.99,,2013-09-26 15:20:00,
2013-09-26 07:25:00,44.8,41.2,0.00,East,83,18.1,-999.0,87,0.00,,,-99.99,,2013-09-26 15:25:00,
2013-09-26 07:30:00,44.5,41.1,0.00,ENE,57,12.3,-999.0,87,0.00,,,-99.99,,2013-09-26 15:30:00,
2013-09-26 07:35:00,44.5,41.3,0.00,East,79,6.8,-999.0,88,0.00,,,-99.99,,2013-09-26 15:35:00,
2013-09-26 07:40:00,44.4,41.5,0.00,NE,40,7.2,-999.0,89,0.00,,,-99.99,,2013-09-26 15:40:00,
2013-09-26 07:45:00,44.6,41.3,0.00,East,95,4.1,-999.0,88,0.00,,,-99.99,,2013-09-26 15:45:00,
2013-09-26 07:50:00,44.6,41.2,0.00,ENE,78,6.8,-999.0,87,0.00,,,-99.99,,2013-09-26 15:50:00,
2013-09-26 07:55:00,44.8,40.7,0.00,East,82,15.4,-999.0,85,0.00,,,-99.99,,2013-09-26 15:55:00,
2013-09-26 08:01:00,45.2,40.7,0.00,ESE,110,10.8,-999.0,83,0.00,,,-99.99,,2013-09-26 16:01:00,
2013-09-26 08:06:00,45.0,40.7,0.00,ENE,72,8.8,-999.0,84,0.00,,,-99.99,,2013-09-26 16:06:00,
2013-09-26 08:11:00,45.4,40.4,0.00,ESE,121,8.8,-999.0,82,0.00,,,-99.99,,2013-09-26 16:11:00,
2013-09-26 08:16:00,45.1,40.3,0.00,ENE,72,6.0,-999.0,83,0.00,,,-99.99,,2013-09-26 16:16:00,
2013-09-26 08:21:00,45.2,40.3,0.00,ENE,70,9.7,-999.0,82,0.00,,,-99.99,,2013-09-26 16:21:00,
2013-09-26 08:26:00,45.1,40.6,0.00,ENE,68,15.3,-999.0,83,0.00,,,-99.99,,2013-09-26 16:26:00,
2013-09-26 08:31:00,45.0,40.4,0.00,East,80,11.4,-999.0,83,0.00,,,-99.99,,2013-09-26 16:31:00,
2013-09-26 08:36:00,45.1,40.8,0.00,ENE,72,13.8,-999.0,84,0.00,,,-99.99,,2013-09-26 16:36:00,
2013-09-26 08:41:00,45.3,40.4,0.00,East,83,24.7,-999.0,82,0.00,,,-99.99,,2013-09-26 16:41:00,
2013-09-26 08:46:00,45.2,40.4,0.00,ENE,68,16.7,-999.0,83,0.00,,,-99.99,,2013-09-26 16:46:00,
2013-09-26 08:51:00,45.0,40.4,0.00,East,88,21.2,-999.0,83,0.00,,,-99.99,,2013-09-26 16:51:00,
2013-09-26 08:56:00,44.9,40.7,0.00,East,101,12.6,-999.0,85,0.00,,,-99.99,,2013-09-26 16:56:00,
2013-09-26 09:01:00,44.8,40.7,0.00,ESE,105,12.7,-999.0,85,0.00,,,-99.99,,2013-09-26 17:01:00,
2013-09-26 09:06:00,45.2,40.7,0.00,ENE,72,11.9,-999.0,83,0.00,,,-99.99,,2013-09-26 17:06:00,
2013-09-26 09:11:00,45.7,40.4,0.00,East,98,17.9,-999.0,81,0.00,,,-99.99,,2013-09-26 17:11:00,
2013-09-26 09:16:00,45.5,40.4,0.00,SE,139,16.2,-999.0,82,0.00,,,-99.99,,2013-09-26 17:16:00,
2013-09-26 09:21:00,45.9,40.6,0.00,ESE,114,18.8,-999.0,81,0.00,,,-99.99,,2013-09-26 17:21:00,
2013-09-26 09:26:00,46.1,40.3,0.00,East,96,16.4,-999.0,79,0.00,,,-99.99,,2013-09-26 17:26:00,
2013-09-26 09:31:00,46.1,40.4,0.00,ESE,106,11.1,-999.0,80,0.00,,,-99.99,,2013-09-26 17:31:00,
2013-09-26 09:36:00,46.0,41.0,0.00,SE,124,11.1,-999.0,82,0.00,,,-99.99,,2013-09-26 17:36:00,
2013-09-26 09:41:00,46.0,40.7,0.00,SE,144,7.7,-999.0,81,0.00,,,-99.99,,2013-09-26 17:41:00,
2013-09-26 09:46:00,46.1,40.5,0.00,East,97,7.2,-999.0,80,0.00,,,-99.99,,2013-09-26 17:46:00,
2013-09-26 09:51:00,46.3,40.4,0.00,SE,143,4.5,-999.0,79,0.00,,,-99.99,,2013-09-26 17:51:00,
2013-09-26 09:56:00,46.4,40.6,0.00,SE,133,4.0,-999.0,80,0.00,,,-99.99,,2013-09-26 17:56:00,
2013-09-26 10:01:00,46.6,40.8,0.00,SSE,154,1.9,-999.0,80,0.00,,,-99.99,,2013-09-26 18:01:00,
2013-09-26 10:06:00,47.1,41.3,0.00,South,184,2.6,-999.0,80,0.00,,,-99.99,,2013-09-26 18:06:00,
2013-09-26 10:11:00,47.5,41.0,0.00,SE,130,9.4,-999.0,77,0.00,,,-99.99,,2013-09-26 18:11:00,
2013-09-26 10:16:00,46.6,40.6,0.00,ENE,67,3.0,-999.0,79,0.00,,,-99.99,,2013-09-26 18:16:00,
2013-09-26 10:21:00,46.4,40.3,0.00,SE,134,13.6,-999.0,79,0.00,,,-99.99,,2013-09-26 18:21:00,
2013-09-26 10:26:00,46.3,40.7,0.00,ENE,70,7.2,-999.0,80,0.00,,,-99.99,,2013-09-26 18:26:00,
2013-09-26 10:31:00,45.8,41.7,0.00,NE,48,10.2,-999.0,85,0.00,,,-99.99,,2013-09-26 18:31:00,
2013-09-26 10:36:00,45.9,41.3,0.00,ENE,65,12.1,-999.0,83,0.00,,,-99.99,,2013-09-26 18:36:00,
2013-09-26 10:41:00,45.9,41.0,0.00,ENE,67,7.3,-999.0,82,0.00,,,-99.99,,2013-09-26 18:41:00,
2013-09-26 10:46:00,45.8,40.9,0.00,ENE,77,11.0,-999.0,82,0.00,,,-99.99,,2013-09-26 18:46:00,
2013-09-26 10:51:00,45.7,41.0,0.00,NNE,27,3.3,-999.0,83,0.00,,,-99.99,,2013-09-26 18:51:00,
2013-09-26 10:56:00,45.7,40.6,0.00,NNE,24,3.8,-999.0,82,0.00,,,-99.99,,2013-09-26 18:56:00,
2013-09-26 11:01:00,46.3,41.0,0.00,NE,47,5.9,-999.0,81,0.00,,,-99.99,,2013-09-26 19:01:00,
2013-09-26 11:06:00,46.4,41.4,0.00,North,2,1.4,-999.0,82,0.00,,,-99.99,,2013-09-26 19:06:00,
2013-09-26 11:11:00,47.3,42.8,0.00,NNE,19,2.5,-999.0,83,0.00,,,-99.99,,2013-09-26 19:11:00,
2013-09-26 11:16:00,47.8,41.4,0.00,NE,43,4.4,-999.0,78,0.00,,,-99.99,,2013-09-26 19:16:00,
2013-09-26 11:21:00,47.3,41.3,0.00,NE,34,3.7,-999.0,79,0.00,,,-99.99,,2013-09-26 19:21:00,
2013-09-26 11:26:00,47.7,42.1,0.00,NE,35,5.4,-999.0,80,0.00,,,-99.99,,2013-09-26 19:26:00,
2013-09-26 11:31:00,47.6,41.2,0.00,NE,34,5.3,-999.0,78,0.00,,,-99.99,,2013-09-26 19:31:00,
2013-09-26 11:36:00,49.7,44.4,0.00,WNW,300,8.1,-999.0,81,0.00,,,-99.99,,2013-09-26 19:36:00,
2013-09-26 11:41:00,50.7,44.1,0.00,NW,322,2.2,-999.0,77,0.00,,,-99.99,,2013-09-26 19:41:00,
2013-09-26 11:46:00,49.6,43.5,0.00,West,264,2.2,-999.0,79,0.00,,,-99.99,,2013-09-26 19:46:00,
2013-09-26 11:51:00,49.7,42.0,0.00,NW,310,8.7,-999.0,74,0.00,,,-99.99,,2013-09-26 19:51:00,
2013-09-26 11:56:00,49.8,43.1,0.00,WNW,291,5.4,-999.0,77,0.00,,,-99.99,,2013-09-26 19:56:00,
2013-09-26 12:01:00,49.3,41.1,0.00,NW,309,6.7,-999.0,73,0.00,,,-99.99,,2013-09-26 20:01:00,
2013-09-26 12:06:00,49.3,43.2,0.00,NW,305,4.7,-999.0,79,0.00,,,-99.99,,2013-09-26 20:06:00,
2013-09-26 12:11:00,48.4,42.6,0.00,West,266,2.3,-999.0,80,0.00,,,-99.99,,2013-09-26 20:11:00,
2013-09-26 12:16:00,50.2,44.0,0.00,NE,36,2.5,-999.0,79,0.00,,,-99.99,,2013-09-26 20:16:00,
2013-09-26 12:21:00,51.0,43.0,0.00,WNW,298,2.6,-999.0,73,0.00,,,-99.99,,2013-09-26 20:21:00,
2013-09-26 12:26:00,51.2,42.4,0.00,WNW,294,5.7,-999.0,71,0.00,,,-99.99,,2013-09-26 20:26:00,
2013-09-26 12:31:00,52.6,43.4,0.00,West,260,2.1,-999.0,70,0.00,,,-99.99,,2013-09-26 20:31:00,
2013-09-26 12:36:00,51.4,42.1,0.00,West,264,5.7,-999.0,70,0.00,,,-99.99,,2013-09-26 20:36:00,
2013-09-26 12:41:00,49.8,43.0,0.00,ESE,104,3.4,-999.0,77,0.00,,,-99.99,,2013-09-26 20:41:00,
2013-09-26 12:46:00,51.0,43.5,0.00,WSW,241,4.3,-999.0,75,0.00,,,-99.99,,2013-09-26 20:46:00,
2013-09-26 12:51:00,51.2,41.6,0.00,NNW,335,10.1,-999.0,69,0.00,,,-99.99,,2013-09-26 20:51:00,
2013-09-26 12:56:00,49.9,42.2,0.00,WNW,302,6.9,-999.0,74,0.00,,,-99.99,,2013-09-26 20:56:00,
2013-09-26 13:01:00,50.5,44.2,0.00,WNW,288,0.5,-999.0,78,0.00,,,-99.99,,2013-09-26 21:01:00,
2013-09-26 13:06:00,49.8,41.1,0.00,WSW,254,5.3,-999.0,71,0.00,,,-99.99,,2013-09-26 21:06:00,
2013-09-26 13:11:00,49.8,42.4,0.00,SW,233,0.9,-999.0,75,0.00,,,-99.99,,2013-09-26 21:11:00,
2013-09-26 13:16:00,49.8,42.2,0.00,SE,124,2.1,-999.0,74,0.00,,,-99.99,,2013-09-26 21:16:00,
2013-09-26 13:21:00,47.9,41.3,0.00,North,7,1.5,-999.0,77,0.00,,,-99.99,,2013-09-26 21:21:00,
2013-09-26 13:26:00,48.7,41.9,0.00,NNW,345,4.3,-999.0,77,0.00,,,-99.99,,2013-09-26 21:26:00,
2013-09-26 13:31:00,49.2,43.5,0.00,NW,311,2.5,-999.0,80,0.00,,,-99.99,,2013-09-26 21:31:00,
2013-09-26 13:36:00,47.5,42.3,0.00,WSW,249,7.3,-999.0,82,0.00,,,-99.99,,2013-09-26 21:36:00,
2013-09-26 13:41:00,48.0,42.8,0.00,SW,226,4.5,-999.0,82,0.00,,,-99.99,,2013-09-26 21:41:00,
2013-09-26 13:46:00,48.4,43.2,0.00,West,259,3.4,-999.0,82,0.00,,,-99.99,,2013-09-26 21:46:00,
2013-09-26 13:51:00,47.9,42.3,0.00,North,353,1.9,-999.0,80,0.00,,,-99.99,,2013-09-26 21:51:00,
2013-09-26 13:56:00,48.2,43.2,0.00,West,272,3.0,-999.0,82,0.00,,,-99.99,,2013-09-26 21:56:00,
2013-09-26 14:01:00,47.8,42.3,0.00,WNW,291,8.9,-999.0,81,0.00,,,-99.99,,2013-09-26 22:01:00,
2013-09-26 14:06:00,47.2,42.2,0.00,West,280,7.2,-999.0,82,0.00,,,-99.99,,2013-09-26 22:06:00,
2013-09-26 14:11:00,47.2,42.2,0.00,West,280,2.0,-999.0,82,0.00,,,-99.99,,2013-09-26 22:11:00,
2013-09-26 14:16:00,46.9,41.8,0.00,WSW,238,6.2,-999.0,82,0.00,,,-99.99,,2013-09-26 22:16:00,
2013-09-26 14:21:00,46.7,41.6,0.00,WSW,253,5.2,-999.0,82,0.00,,,-99.99,,2013-09-26 22:21:00,
2013-09-26 14:26:00,47.0,42.3,0.00,WSW,244,5.8,-999.0,83,0.00,,,-99.99,,2013-09-26 22:26:00,
2013-09-26 14:32:00,46.7,42.1,0.00,SSW,205,4.9,-999.0,84,0.00,,,-99.99,,2013-09-26 22:32:00,
2013-09-26 14:37:00,46.5,41.7,0.00,SW,217,5.1,-999.0,83,0.00,,,-99.99,,2013-09-26 22:37:00,
2013-09-26 14:42:00,46.5,41.5,0.00,SW,229,6.4,-999.0,82,0.00,,,-99.99,,2013-09-26 22:42:00,
2013-09-26 14:47:00,46.8,41.7,0.00,SW,222,6.1,-999.0,82,0.00,,,-99.99,,2013-09-26 22:47:00,
2013-09-26 14:52:00,47.7,42.5,0.00,West,266,5.8,-999.0,82,0.00,,,-99.99,,2013-09-26 22:52:00,
2013-09-26 14:57:00,48.1,43.2,0.00,WSW,250,7.7,-999.0,83,0.00,,,-99.99,,2013-09-26 22:57:00,
2013-09-26 15:02:00,47.3,42.5,0.00,WSW,239,5.2,-999.0,83,0.00,,,-99.99,,2013-09-26 23:02:00,
2013-09-26 15:07:00,47.0,43.2,0.00,SSW,195,5.8,-999.0,86,0.00,,,-99.99,,2013-09-26 23:07:00,
2013-09-26 15:12:00,46.4,43.2,0.00,SSW,200,3.0,-999.0,88,0.00,,,-99.99,,2013-09-26 23:12:00,
2013-09-26 15:17:00,46.2,42.9,0.00,South,171,4.7,-999.0,88,0.00,,,-99.99,,2013-09-26 23:17:00,
2013-09-26 15:22:00,46.1,42.9,0.00,SSE,167,3.5,-999.0,88,0.00,,,-99.99,,2013-09-26 23:22:00,
2013-09-26 15:27:00,45.6,42.9,0.00,SSE,158,4.3,-999.0,90,0.00,,,-99.99,,2013-09-26 23:27:00,
2013-09-26 15:32:00,45.6,42.5,0.00,West,276,1.9,-999.0,88,0.00,,,-99.99,,2013-09-26 23:32:00,
2013-09-26 15:37:00,45.8,43.1,0.00,SE,134,2.5,-999.0,90,0.00,,,-99.99,,2013-09-26 23:37:00,
2013-09-26 15:42:00,46.1,43.2,0.00,SW,222,0.0,-999.0,89,0.00,,,-99.99,,2013-09-26 23:42:00,
2013-09-26 15:47:00,45.9,43.1,0.00,South,169,2.1,-999.0,89,0.00,,,-99.99,,2013-09-26 23:47:00,
2013-09-26 15:52:00,47.0,43.0,0.00,WSW,247,5.8,-999.0,86,0.00,,,-99.99,,2013-09-26 23:52:00,
2013-09-26 15:57:00,47.6,41.8,0.00,WSW,255,3.3,-999.0,80,0.00,,,-99.99,,2013-09-26 23:57:00,
2013-09-26 16:02:00,47.3,42.1,0.00,WNW,283,3.8,-999.0,81,0.00,,,-99.99,,2013-09-27 00:02:00,
2013-09-26 16:07:00,47.3,41.9,0.00,WSW,249,1.4,-999.0,81,0.00,,,-99.99,,2013-09-27 00:07:00,
2013-09-26 16:12:00,47.4,42.3,0.00,NW,323,1.9,-999.0,82,0.00,,,-99.99,,2013-09-27 00:12:00,
2013-09-26 16:18:00,47.0,41.9,0.00,WSW,258,4.5,-999.0,82,0.00,,,-99.99,,2013-09-27 00:18:00,
2013-09-26 16:23:00,47.2,42.7,0.00,WNW,294,0.1,-999.0,84,0.00,,,-99.99,,2013-09-27 00:23:00,
2013-09-26 16:28:00,46.9,42.7,0.00,South,189,1.3,-999.0,85,0.00,,,-99.99,,2013-09-27 00:28:00,
2013-09-26 16:33:00,46.9,42.7,0.00,South,183,0.5,-999.0,84,0.00,,,-99.99,,2013-09-27 00:33:00,
2013-09-26 16:38:00,46.8,42.7,0.00,WSW,250,3.2,-999.0,85,0.00,,,-99.99,,2013-09-27 00:38:00,
2013-09-26 16:43:00,46.7,42.4,0.00,NW,308,3.5,-999.0,84,0.00,,,-99.99,,2013-09-27 00:43:00,
2013-09-26 16:48:00,47.0,42.8,0.00,West,269,2.4,-999.0,85,0.00,,,-99.99,,2013-09-27 00:48:00,
2013-09-26 16:53:00,47.1,42.9,0.00,NW,315,2.0,-999.0,85,0.00,,,-99.99,,2013-09-27 00:53:00,
2013-09-26 16:58:00,47.0,41.2,0.00,NW,308,11.3,-999.0,79,0.00,,,-99.99,,2013-09-27 00:58:00,
2013-09-26 17:03:00,47.0,42.2,0.00,SSW,212,0.0,-999.0,83,0.00,,,-99.99,,2013-09-27 01:03:00,
2013-09-26 17:08:00,46.8,41.9,0.00,NW,308,2.2,-999.0,82,0.00,,,-99.99,,2013-09-27 01:08:00,
2013-09-26 17:13:00,46.7,41.2,0.00,NW,307,10.4,-999.0,81,0.00,,,-99.99,,2013-09-27 01:13:00,
2013-09-26 17:18:00,46.4,40.9,0.00,NW,315,14.1,-999.0,81,0.00,,,-99.99,,2013-09-27 01:18:00,
2013-09-26 17:23:00,46.4,40.2,0.00,NNW,341,20.5,-999.0,78,0.00,,,-99.99,,2013-09-27 01:23:00,
2013-09-26 17:28:00,45.9,40.9,0.00,NNW,340,20.7,-999.0,82,0.00,,,-99.99,,2013-09-27 01:28:00,
2013-09-26 17:33:00,45.6,39.6,0.00,NNW,334,27.4,-999.0,79,0.00,,,-99.99,,2013-09-27 01:33:00,
2013-09-26 17:38:00,45.4,39.5,0.00,NNW,334,24.7,-999.0,79,0.00,,,-99.99,,2013-09-27 01:38:00,
2013-09-26 17:44:00,45.0,39.7,0.00,NW,320,23.9,-999.0,81,0.00,,,-99.99,,2013-09-27 01:44:00,
2013-09-26 17:49:00,44.7,39.6,0.00,NNW,334,23.8,-999.0,82,0.00,,,-99.99,,2013-09-27 01:49:00,
2013-09-26 17:54:00,44.5,39.8,0.00,NW,312,23.3,-999.0,83,0.00,,,-99.99,,2013-09-27 01:54:00,
2013-09-26 17:59:00,44.3,39.7,0.00,NW,318,22.7,-999.0,83,0.00,,,-99.99,,2013-09-27 01:59:00,
2013-09-26 18:04:00,44.1,39.0,0.00,NW,304,20.8,-999.0,81,0.00,,,-99.99,,2013-09-27 02:04:00,
2013-09-26 18:09:00,44.1,38.3,0.00,NW,317,21.2,-999.0,79,0.00,,,-99.99,,2013-09-27 02:09:00,
2013-09-26 18:14:00,43.9,37.9,0.00,NW,313,21.8,-999.0,79,0.00,,,-99.99,,2013-09-27 02:14:00,
2013-09-26 18:19:00,43.8,37.3,0.00,NW,325,21.2,-999.0,77,0.00,,,-99.99,,2013-09-27 02:19:00,
2013-09-26 18:24:00,43.6,37.5,0.00,NW,321,25.3,-999.0,78,0.00,,,-99.99,,2013-09-27 02:24:00,
2013-09-26 18:29:00,43.8,37.3,0.00,NW,312,27.6,-999.0,77,0.00,,,-99.99,,2013-09-27 02:29:00,
2013-09-26 18:34:00,43.5,37.5,0.00,NW,311,25.6,-999.0,79,0.00,,,-99.99,,2013-09-27 02:34:00,
2013-09-26 18:39:00,43.2,37.9,0.00,NNW,328,31.3,-999.0,81,0.00,,,-99.99,,2013-09-27 02:39:00,
2013-09-26 18:44:00,42.5,38.0,0.00,NW,321,26.7,-999.0,84,0.00,,,-99.99,,2013-09-27 02:44:00,
2013-09-26 18:49:00,41.9,37.9,0.00,NW,324,22.5,-999.0,85,0.00,,,-99.99,,2013-09-27 02:49:00,
2013-09-26 18:54:00,41.3,38.4,0.00,NW,317,24.5,-999.0,89,0.00,,,-99.99,,2013-09-27 02:54:00,
2013-09-26 18:59:00,40.9,38.0,0.00,NNW,327,23.5,-999.0,89,0.00,,,-99.99,,2013-09-27 02:59:00,
2013-09-26 19:04:00,40.6,38.3,0.00,WNW,303,29.3,-999.0,91,0.00,,,-99.99,,2013-09-27 03:04:00,
2013-09-26 19:09:00,40.2,37.9,0.00,NW,316,28.4,-999.0,91,0.00,,,-99.99,,2013-09-27 03:09:00,
2013-09-26 19:14:00,40.2,38.2,0.00,NW,305,28.9,-999.0,92,0.00,,,-99.99,,2013-09-27 03:14:00,
2013-09-26 19:19:00,39.9,37.8,0.00,NW,309,23.6,-999.0,92,0.00,,,-99.99,,2013-09-27 03:19:00,
2013-09-26 19:24:00,39.7,37.8,0.00,West,268,10.2,-999.0,92,0.00,,,-99.99,,2013-09-27 03:24:00,
2013-09-26 19:29:00,39.3,37.7,0.00,WSW,246,4.4,-999.0,94,0.00,,,-99.99,,2013-09-27 03:29:00,
2013-09-26 19:34:00,39.3,38.1,0.00,NW,308,4.7,-999.0,95,0.00,,,-99.99,,2013-09-27 03:34:00,
2013-09-26 19:39:00,39.2,38.2,0.00,ENE,78,3.1,-999.0,96,0.00,,,-99.99,,2013-09-27 03:39:00,
2013-09-26 19:44:00,39.0,38.0,0.00,SE,145,1.9,-999.0,96,0.00,,,-99.99,,2013-09-27 03:44:00,
2013-09-26 19:49:00,38.9,37.9,0.00,South,186,5.0,-999.0,96,0.00,,,-99.99,,2013-09-27 03:49:00,
2013-09-26 19:54:00,38.7,37.7,0.00,NE,42,2.9,-999.0,96,0.00,,,-99.99,,2013-09-27 03:54:00,
2013-09-26 19:59:00,38.4,37.5,0.00,SSE,158,4.2,-999.0,96,0.00,,,-99.99,,2013-09-27 03:59:00,
2013-09-26 20:01:00,38.4,37.5,0.00,ESE,103,5.7,-999.0,96,0.00,,,-99.99,,2013-09-27 04:01:00,
2013-09-26 20:02:00,38.4,37.5,0.00,West,271,7.9,-999.0,96,0.00,,,-99.99,,2013-09-27 04:02:00,
2013-09-26 20:03:00,38.2,37.4,0.00,WNW,302,2.5,-999.0,96,0.00,,,-99.99,,2013-09-27 04:03:00,
2013-09-26 20:08:00,38.4,37.7,0.00,ESE,122,4.7,-999.0,97,0.00,,,-99.99,,2013-09-27 04:08:00,
2013-09-26 20:09:00,38.4,37.8,0.00,SE,136,1.5,-999.0,97,0.00,,,-99.99,,2013-09-27 04:09:00,
2013-09-26 20:11:00,38.3,37.7,0.00,SW,236,4.8,-999.0,97,0.00,,,-99.99,,2013-09-27 04:11:00,
2013-09-26 20:16:00,38.4,37.8,0.00,SE,146,2.6,-999.0,97,0.00,,,-99.99,,2013-09-27 04:16:00,
2013-09-26 20:21:00,38.3,37.8,0.00,NNW,340,4.0,-999.0,98,0.00,,,-99.99,,2013-09-27 04:21:00,
2013-09-26 20:26:00,38.6,38.1,0.00,South,171,2.8,-999.0,98,0.00,,,-99.99,,2013-09-27 04:26:00,
2013-09-26 20:31:00,38.8,38.4,0.00,North,349,3.5,-999.0,98,0.00,,,-99.99,,2013-09-27 04:31:00,
2013-09-26 20:36:00,38.6,38.3,0.00,SSE,165,5.9,-999.0,98,0.00,,,-99.99,,2013-09-27 04:36:00,
2013-09-26 20:41:00,38.9,38.5,0.00,WSW,249,5.7,-999.0,98,0.00,,,-99.99,,2013-09-27 04:41:00,
2013-09-26 20:46:00,39.0,38.7,0.00,SSW,207,3.2,-999.0,98,0.00,,,-99.99,,2013-09-27 04:46:00,
2013-09-26 20:51:00,38.9,38.6,0.00,NW,323,1.8,-999.0,98,0.00,,,-99.99,,2013-09-27 04:51:00,
2013-09-26 20:56:00,39.0,38.7,0.00,WNW,287,3.0,-999.0,98,0.00,,,-99.99,,2013-09-27 04:56:00,
2013-09-26 21:01:00,38.9,38.6,0.00,SE,132,2.4,-999.0,98,0.00,,,-99.99,,2013-09-27 05:01:00,
2013-09-26 21:06:00,38.9,38.6,0.00,East,95,2.6,-999.0,99,0.00,,,-99.99,,2013-09-27 05:06:00,
2013-09-26 21:11:00,38.9,38.7,0.00,West,262,2.4,-999.0,99,0.00,,,-99.99,,2013-09-27 05:11:00,
2013-09-26 21:16:00,39.3,39.1,0.00,North,5,3.3,-999.0,99,0.00,,,-99.99,,2013-09-27 05:16:00,
2013-09-26 21:21:00,39.5,39.3,0.00,North,3,3.8,-999.0,99,0.00,,,-99.99,,2013-09-27 05:21:00,
2013-09-26 21:26:00,39.9,39.7,0.00,NE,39,6.0,-999.0,99,0.00,,,-99.99,,2013-09-27 05:26:00,
2013-09-26 21:31:00,39.9,39.7,0.00,NE,55,5.8,-999.0,99,0.00,,,-99.99,,2013-09-27 05:31:00,
2013-09-26 21:36:00,40.0,39.8,0.00,SSW,193,8.4,-999.0,99,0.00,,,-99.99,,2013-09-27 05:36:00,
2013-09-26 21:41:00,40.3,40.1,0.00,NNE,16,6.6,-999.0,99,0.00,,,-99.99,,2013-09-27 05:41:00,
2013-09-26 21:46:00,40.6,40.5,0.00,North,351,4.2,-999.0,99,0.00,,,-99.99,,2013-09-27 05:46:00,
2013-09-26 21:51:00,40.8,40.6,0.00,SSE,162,4.8,-999.0,99,0.00,,,-99.99,,2013-09-27 05:51:00,
2013-09-26 21:56:00,40.9,40.7,0.00,WSW,249,3.8,-999.0,99,0.00,,,-99.99,,2013-09-27 05:56:00,
2013-09-26 22:01:00,41.1,40.9,0.00,East,86,9.1,-999.0,99,0.00,,,-99.99,,2013-09-27 06:01:00,
2013-09-26 22:06:00,41.2,41.1,0.00,SSW,210,2.5,-999.0,99,0.00,,,-99.99,,2013-09-27 06:06:00,
2013-09-26 22:11:00,41.6,41.4,0.00,NNE,22,7.3,-999.0,99,0.00,,,-99.99,,2013-09-27 06:11:00,
2013-09-26 22:16:00,41.8,41.6,0.00,East,97,3.5,-999.0,99,0.00,,,-99.99,,2013-09-27 06:16:00,
2013-09-26 22:21:00,42.0,41.8,0.00,WNW,303,11.6,-999.0,99,0.00,,,-99.99,,2013-09-27 06:21:00,
2013-09-26 22:26:00,42.2,42.0,0.00,SE,129,4.8,-999.0,99,0.00,,,-99.99,,2013-09-27 06:26:00,
2013-09-26 22:31:00,42.4,42.3,0.00,SW,217,2.2,-999.0,99,0.00,,,-99.99,,2013-09-27 06:31:00,
2013-09-26 22:36:00,42.5,42.3,0.00,West,267,2.6,-999.0,99,0.00,,,-99.99,,2013-09-27 06:36:00,
2013-09-26 22:41:00,42.7,42.5,0.00,ENE,70,2.6,-999.0,99,0.00,,,-99.99,,2013-09-27 06:41:00,
2013-09-26 22:46:00,42.9,42.8,0.00,ENE,75,2.7,-999.0,99,0.00,,,-99.99,,2013-09-27 06:46:00,
2013-09-26 22:51:00,42.9,42.8,0.00,South,175,6.0,-999.0,99,0.00,,,-99.99,,2013-09-27 06:51:00,
2013-09-26 22:56:00,43.1,42.9,0.00,ESE,120,4.8,-999.0,99,0.00,,,-99.99,,2013-09-27 06:56:00,
2013-09-26 23:01:00,43.2,43.1,0.00,South,176,1.9,-999.0,99,0.00,,,-99.99,,2013-09-27 07:01:00,
2013-09-26 23:06:00,43.4,43.2,0.00,WNW,282,3.6,-999.0,99,0.00,,,-99.99,,2013-09-27 07:06:00,
2013-09-26 23:11:00,43.5,43.4,0.00,SSW,200,3.9,-999.0,99,0.00,,,-99.99,,2013-09-27 07:11:00,
2013-09-26 23:16:00,43.7,43.5,0.00,ENE,57,3.2,-999.0,99,0.00,,,-99.99,,2013-09-27 07:16:00,
2013-09-26 23:21:00,43.6,43.5,0.00,East,89,0.8,-999.0,99,0.00,,,-99.99,,2013-09-27 07:21:00,
2013-09-26 23:26:00,43.5,43.3,0.00,SE,128,3.6,-999.0,99,0.00,,,-99.99,,2013-09-27 07:26:00,
2013-09-26 23:31:00,43.6,43.5,0.00,South,190,0.8,-999.0,99,0.00,,,-99.99,,2013-09-27 07:31:00,
2013-09-26 23:36:00,43.4,43.2,0.00,WSW,240,6.7,-999.0,99,0.00,,,-99.99,,2013-09-27 07:36:00,
2013-09-26 23:41:00,43.5,43.4,0.00,West,269,5.7,-999.0,99,0.00,,,-99.99,,2013-09-27 07:41:00,
2013-09-26 23:46:00,43.4,43.3,0.00,SW,220,6.3,-999.0,99,0.00,,,-99.99,,2013-09-27 07:46:00,
2013-09-26 23:49:00,43.4,43.3,0.00,ENE,60,0.9,-999.0,99,0.00,,,-99.99,,2013-09-27 07:49:00,
2013-09-26 23:54:00,43.4,43.3,0.00,WNW,299,5.1,-999.0,99,0.00,,,-99.99,,2013-09-27 07:54:00,
2013-09-26 23:59:00,43.4,43.3,0.00,SSW,207,6.5,-999.0,99,0.00,,,-99.99,,2013-09-27 07:59:00,